WetterOnline ( http://www.wetteronline.de )

Wetter aktuell Erzgebirge/Ost (in 800m)

Aktuelles Wetter: Zinnwald (882m)

6-stündlich | Neueste Meldungen
Ortszeit Temperatur Wetter
Do, 21.06. 14:00 22.4° C leicht bewölkt
Do, 21.06. 8:00 20.1° C wolkenlos
Do, 21.06. 2:00 16.4° C leicht bewölkt
Mi, 20.06. 20:00 21.1° C wolkenlos
Mi, 20.06. 14:00 21.8° C leicht bewölkt
Mi, 20.06. 8:00 14.9° C bewölkt
Mi, 20.06. 2:00 13.8° C bedeckt
Di, 19.06. 20:00 17.2° C bedeckt
Ortszeit Temperatur Wetter
Do, 21.06. 19:30 10.1° C bewölkt
Do, 21.06. 19:20 10.1° C bewölkt
Do, 21.06. 19:10 9.9° C bewölkt
Do, 21.06. 19:00 9.8° C Regen
Do, 21.06. 18:50 9.8° C bedeckt
Do, 21.06. 18:40 10.0° C Sprühregen
Do, 21.06. 18:30 11.7° C leichter Regen
Do, 21.06. 18:00 11.3° C Sprühregen
Do, 21.06. 17:30 11.7° C bedeckt
Do, 21.06. 17:00 12.5° C bedeckt
Do, 21.06. 16:30 -° C bewölkt
Ortszeit Relative Feuchte Sichtweite
Do, 21.06. 14:00 51% 50 km
Do, 21.06. 8:00 60% 18 km
Do, 21.06. 2:00 74% 30 km
Mi, 20.06. 20:00 55% 26 km
Mi, 20.06. 14:00 54% 17 km
Mi, 20.06. 8:00 88% 8 km
Mi, 20.06. 2:00 87% 20 km
Di, 19.06. 20:00 69% 50 km
Ortszeit Relative Feuchte Sichtweite
Do, 21.06. 19:30 88% 15 km
Do, 21.06. 19:20 88% -
Do, 21.06. 19:10 90% -
Do, 21.06. 19:00 90% 11 km
Do, 21.06. 18:50 90% -
Do, 21.06. 18:40 90% -
Do, 21.06. 18:30 87% 13 km
Do, 21.06. 18:00 84% 12 km
Do, 21.06. 17:30 81% 28 km
Do, 21.06. 17:00 78% 45 km
Do, 21.06. 16:30 - 40 km
Ortszeit Niederschlagsmenge Niederschlagsart
Do, 21.06. 14:00 0.0 l/m2 in 6 Std. -
Do, 21.06. 8:00 0.0 l/m2 in 12 Std. -
Do, 21.06. 2:00 0.0 l/m2 in 6 Std. -
Mi, 20.06. 20:00 0.0 l/m2 in 12 Std. -
Mi, 20.06. 14:00 0.0 l/m2 in 6 Std. -
Mi, 20.06. 8:00 0.0 l/m2 in 12 Std. -
Mi, 20.06. 2:00 0.0 l/m2 in 6 Std. -
Di, 19.06. 20:00 0.0 l/m2 in 12 Std. -
Ortszeit Niederschlagsmenge Niederschlagsart
Do, 21.06. 19:30 0.1 l/m2 in 1 Std. Schneeregen
Do, 21.06. 19:20 keine Meldung -
Do, 21.06. 19:10 keine Meldung -
Do, 21.06. 19:00 0.1 l/m2 in 1 Std. Regen
Do, 21.06. 18:50 keine Meldung -
Do, 21.06. 18:40 keine Meldung -
Do, 21.06. 18:30 0.1 l/m2 in 1 Std. -
Do, 21.06. 18:00 0.1 l/m2 in 1 Std. Regen
Do, 21.06. 17:30 0.1 l/m2 in 1 Std. Schnee
Do, 21.06. 17:00 0.0 l/m2 in 1 Std. -
Do, 21.06. 16:30 0.0 l/m2 in 1 Std. -
Ortszeit Stärke Spitze Richtung
km/h Bft. km/h Grad Sektor
Do, 21.06. 14:00 29 5 61 260° W
Do, 21.06. 8:00 19 3 26 220° SW
Do, 21.06. 2:00 17 3 26 190° S
Mi, 20.06. 20:00 15 3 35 190° S
Mi, 20.06. 14:00 20 4 35 220° SW
Mi, 20.06. 8:00 6 1 20 70° O
Mi, 20.06. 2:00 14 3 22 330° NW
Di, 19.06. 20:00 11 2 32 330° NW
Ortszeit Stärke Spitze Richtung
km/h Bft. km/h Grad Sektor
Do, 21.06. 19:30 32 5 58 330° NW
Do, 21.06. 19:20 32 5 - 330° NW
Do, 21.06. 19:10 32 5 - 320° NW
Do, 21.06. 19:00 30 5 52 330° NW
Do, 21.06. 18:50 30 5 - 330° NW
Do, 21.06. 18:40 31 5 - 330° NW
Do, 21.06. 18:30 25 4 43 320° NW
Do, 21.06. 18:00 28 4 48 310° NW
Do, 21.06. 17:30 26 4 48 320° NW
Do, 21.06. 17:00 30 5 54 330° NW
Do, 21.06. 16:30 28 4 54 320° NW
Ortszeit Untergrenze Bedeckung Gattung
total tief tief mittel hoch
Do, 21.06. 14:00 1500 m 4/8 3/8 - - -
Do, 21.06. 8:00 - 0/8 0/8 - - -
Do, 21.06. 2:00 1440 m 4/8 4/8 - - -
Mi, 20.06. 20:00 - 0/8 0/8 - - -
Mi, 20.06. 14:00 1080 m 3/8 3/8 - - -
Mi, 20.06. 8:00 1320 m 7/8 7/8 - - -
Mi, 20.06. 2:00 1440 m 8/8 8/8 - - -
Di, 19.06. 20:00 1350 m 8/8 8/8 - - -
Ortszeit Bedeckungsgrad in Achtel und Wolkenuntergrenze
Do, 21.06. 19:30 6(180m) 7(360m) 7(960m)
Do, 21.06. 19:20 6(180m) 7(360m) 7(960m)
Do, 21.06. 19:10 5(180m) 7(990m) 7(1380m)
Do, 21.06. 19:00 5(150m) 5(420m) 8(990m)
Do, 21.06. 18:50 5(150m) 5(420m) 8(990m)
Do, 21.06. 18:40 7(180m) 7(480m) 8(2700m)
Do, 21.06. 18:30 4(270m) 5(960m) 7(2700m)
Do, 21.06. 18:00 1(450m) 5(1140m) 8(1410m)
Do, 21.06. 17:30 6(300m) 7(510m) 8(660m)
Do, 21.06. 17:00 8(390m)
Do, 21.06. 16:30 7(390m)
Ortszeit Stationsdruck (hPa) Tendenz (hPa in 3 Std.)
Do, 21.06. 14:00 912 - 1,2
Do, 21.06. 8:00 915 - 1,2
Do, 21.06. 2:00 918 - 1,3
Mi, 20.06. 20:00 920 - 1,5
Mi, 20.06. 14:00 923 - 1,1
Mi, 20.06. 8:00 924 + 0,3
Mi, 20.06. 2:00 924 + 0,1
Di, 19.06. 20:00 923 + 0,2
Ortszeit Stationsdruck (hPa) Tendenz (hPa in 3 Std.)
Do, 21.06. 19:30 914 - 0,6
Do, 21.06. 19:20 914 keine Meldung
Do, 21.06. 19:10 914 keine Meldung
Do, 21.06. 19:00 914 + 0,5
Do, 21.06. 18:50 914 keine Meldung
Do, 21.06. 18:40 914 keine Meldung
Do, 21.06. 18:30 914 + 1,1
Do, 21.06. 18:00 914 + 1,9
Do, 21.06. 17:30 915 + 2,3
Do, 21.06. 17:00 914 + 2,1
Do, 21.06. 16:30 914 + 2,2
Ortszeit Schneehöhe (cm)
Do, 21.06. 14:00 -
Do, 21.06. 8:00 -
Do, 21.06. 2:00 -
Mi, 20.06. 20:00 -
Mi, 20.06. 14:00 -
Mi, 20.06. 8:00 -
Mi, 20.06. 2:00 0
Di, 19.06. 20:00 -
Ortszeit Schneehöhe (cm)
Do, 21.06. 19:30 -
Do, 21.06. 19:20 -
Do, 21.06. 19:10 -
Do, 21.06. 19:00 -
Do, 21.06. 18:50 -
Do, 21.06. 18:40 -
Do, 21.06. 18:30 -
Do, 21.06. 18:00 -
Do, 21.06. 17:30 -
Do, 21.06. 17:00 -
Do, 21.06. 16:30 -
Link zu dieser Seite / Seite empfehlen

Das Wetter in ...